Nearby METAR Reports


NZAA - Auckland Intl Ar, New Zealand
Distance from station: NW 162km
Updated: 16/10/2018 14:00
Overcast
Overcast
 Wind from SW
Wind: SW 19 km/h
Temperature: 15°C
Dew Point: 7°C
Humidity: 59%
Barometer: 1030 hPa
Clouds: Overcast
Visibility: 10 km
Cloud details: Overcast 1219 m
2018/10/16 01:00 NZAA 160100Z AUTO 23010KT 9999 OVC040/// 15/07 Q1030 NOSIG
NZWN - Wellington Intl, New Zealand
Distance from station: SSW 357km
Updated: 16/10/2018 14:00
Few Clouds
Few Clouds
 Wind from N
Wind: N 33 km/h, Gust: 52 km/h
Temperature: 16°C
Dew Point: 7°C
Humidity: 55%
Barometer: 1027 hPa
Clouds: Few Clouds
Visibility: 10 km
Cloud details: Few Clouds 1036 m
2018/10/16 01:00 NZWN 160100Z AUTO 36018G28KT 9999 FEW034/// 16/07 Q1027 NOSIG
 
NZCH - Christchurch Int, New Zealand
Distance from station: SSW 647km
Updated: 16/10/2018 14:00
Clear
Clear
 Wind from ENE
Wind: ENE 20 km/h
Temperature: 15°C
Dew Point: 6°C
Humidity: 55%
Barometer: 1024 hPa
Clouds: Clear
Visibility: 10 km
2018/10/16 01:00 NZCH 160100Z AUTO 06011KT 030V100 9999 NCD 15/06 Q1024 NOSIG
YSNF - Norfolk Island A, Australia
Distance from station: NW 1258km
Updated: 16/10/2018 14:05
Mostly cloudy
Mostly cloudy
 Wind from E
Wind: E 35 km/h, Gust: 57 km/h
Temperature: 19°C
Dew Point: 14°C
Humidity: 73%
Barometer: 1026 hPa
Clouds: Mostly cloudy
Visibility: 10 km
Cloud details: Few Clouds 610 m
Mostly cloudy 1676 m
2018/10/16 01:05 YSNF 160105Z 08019G31KT 9999 FEW020 BKN055 19/14 Q1026